createdAt,value
2018-11-23T00:00:28.167Z,102103.22
2018-11-23T00:02:57.300Z,102103.63
2018-11-23T00:05:25.448Z,102105.02
2018-11-23T00:07:54.225Z,102104.20
2018-11-23T00:10:23.522Z,102106.58
2018-11-23T00:12:52.002Z,102105.98
2018-11-23T00:15:21.213Z,102112.19
2018-11-23T00:17:49.425Z,102106.80
2018-11-23T00:20:18.905Z,102104.95
2018-11-23T00:22:47.139Z,102100.78
2018-11-23T00:25:24.827Z,102101.17
2018-11-23T00:27:53.498Z,102101.70
2018-11-23T00:30:25.884Z,102101.17
2018-11-23T00:32:54.325Z,102102.80
2018-11-23T00:35:24.857Z,102095.00
2018-11-23T00:37:53.556Z,102092.94
2018-11-23T00:40:25.022Z,102091.72
2018-11-23T00:42:53.497Z,102092.50
2018-11-23T00:45:21.713Z,102101.86
2018-11-23T00:47:50.565Z,102100.42
2018-11-23T00:50:19.903Z,102098.09
2018-11-23T00:52:48.354Z,102101.23
2018-11-23T00:55:17.669Z,102098.61
2018-11-23T00:57:45.783Z,102096.58
2018-11-23T01:00:15.453Z,102093.06
2018-11-23T01:02:43.955Z,102102.45
2018-11-23T01:05:13.820Z,102094.32
2018-11-23T01:07:42.622Z,102096.98
2018-11-23T01:10:12.481Z,102093.72
2018-11-23T01:12:40.715Z,102098.00
2018-11-23T01:15:09.561Z,102087.82
2018-11-23T01:17:37.697Z,102084.19
2018-11-23T01:20:07.998Z,102080.10
2018-11-23T01:22:36.189Z,102079.33
2018-11-23T01:25:04.765Z,102088.08
2018-11-23T01:27:32.905Z,102083.73
2018-11-23T01:30:01.069Z,102082.87
2018-11-23T01:32:29.221Z,102085.33
2018-11-23T01:34:57.443Z,102085.20
2018-11-23T01:37:25.675Z,102086.14
2018-11-23T01:39:53.867Z,102081.55
2018-11-23T01:42:22.019Z,102076.47
2018-11-23T01:44:51.975Z,102067.06
2018-11-23T01:47:22.524Z,102069.69
2018-11-23T01:49:50.785Z,102071.24
2018-11-23T01:52:18.933Z,102067.13
2018-11-23T01:54:47.188Z,102059.27
2018-11-23T01:57:15.361Z,102062.48
2018-11-23T01:59:43.532Z,102056.05
2018-11-23T02:02:11.697Z,102057.09
2018-11-23T02:04:39.901Z,102056.08
2018-11-23T02:07:08.282Z,102059.25
2018-11-23T02:09:36.535Z,102063.45
2018-11-23T02:12:04.645Z,102060.64
2018-11-23T02:14:32.772Z,102060.12
2018-11-23T02:17:00.945Z,102062.05
2018-11-23T02:19:29.260Z,102066.27
2018-11-23T02:21:57.497Z,102058.41
2018-11-23T02:24:25.665Z,102055.32
2018-11-23T02:26:53.799Z,102056.69
2018-11-23T02:29:21.938Z,102053.23
2018-11-23T02:31:50.179Z,102041.23
2018-11-23T02:34:18.421Z,102041.25
2018-11-23T02:36:46.635Z,102045.16
2018-11-23T02:39:14.721Z,102036.58
2018-11-23T02:41:42.842Z,102038.55
2018-11-23T02:44:11.041Z,102034.41
2018-11-23T02:46:39.223Z,102031.10
2018-11-23T02:49:07.349Z,102027.91
2018-11-23T02:51:35.505Z,102031.40
2018-11-23T02:54:03.642Z,102024.44
2018-11-23T02:56:40.618Z,102023.36
2018-11-23T02:59:08.691Z,102018.84
2018-11-23T03:01:36.793Z,102022.86
2018-11-23T03:04:05.479Z,102021.58
2018-11-23T03:06:33.789Z,102019.94
2018-11-23T03:09:09.349Z,102016.75
2018-11-23T03:11:39.418Z,102013.47
2018-11-23T03:14:08.011Z,102017.64
2018-11-23T03:16:36.532Z,102013.23
2018-11-23T03:19:05.080Z,102013.12
2018-11-23T03:21:33.207Z,102010.73
2018-11-23T03:24:01.404Z,102016.55
2018-11-23T03:26:29.555Z,102021.81
2018-11-23T03:28:57.733Z,102019.08
2018-11-23T03:31:26.614Z,102017.73
2018-11-23T03:33:55.291Z,102011.74
2018-11-23T03:36:24.200Z,102015.95
2018-11-23T03:38:52.693Z,102007.81
2018-11-23T03:41:20.921Z,102009.30
2018-11-23T03:43:49.053Z,102006.53
2018-11-23T03:46:17.166Z,102002.16
2018-11-23T03:48:45.364Z,102002.84
2018-11-23T03:51:13.683Z,102003.91
2018-11-23T03:53:41.827Z,102001.95
2018-11-23T03:56:09.990Z,101999.56
2018-11-23T03:58:38.124Z,102000.95
2018-11-23T04:01:06.665Z,101997.50
2018-11-23T04:03:34.845Z,101995.66
2018-11-23T04:06:03.186Z,102001.33
2018-11-23T04:08:31.320Z,102000.28
2018-11-23T04:10:59.459Z,101993.44
2018-11-23T04:13:27.670Z,101997.90
2018-11-23T04:15:55.812Z,102001.33
2018-11-23T04:18:23.922Z,101997.55
2018-11-23T04:20:57.453Z,101997.91
2018-11-23T04:23:25.651Z,101999.30
2018-11-23T04:25:54.006Z,101992.18
2018-11-23T04:28:22.133Z,101998.73
2018-11-23T04:30:50.291Z,101993.70
2018-11-23T04:33:18.499Z,102000.04
2018-11-23T04:35:46.620Z,101993.70
2018-11-23T04:38:14.712Z,101995.81
2018-11-23T04:40:42.880Z,102004.77
2018-11-23T04:43:11.172Z,102001.38
2018-11-23T04:45:39.384Z,101998.38
2018-11-23T04:48:07.579Z,102002.30
2018-11-23T04:50:35.719Z,102010.32
2018-11-23T04:53:03.912Z,102005.79
2018-11-23T04:55:32.068Z,102006.53
2018-11-23T04:58:00.241Z,102006.32
2018-11-23T05:00:28.390Z,102006.03
2018-11-23T05:02:56.526Z,102012.28
2018-11-23T05:05:24.681Z,102005.25
2018-11-23T05:07:52.829Z,102004.53
2018-11-23T05:10:20.956Z,102002.84
2018-11-23T05:12:50.121Z,102002.45
2018-11-23T05:15:19.011Z,101997.75
2018-11-23T05:17:47.565Z,101994.98
2018-11-23T05:20:16.314Z,101997.78
2018-11-23T05:22:44.803Z,102000.73
2018-11-23T05:25:14.293Z,101998.14
2018-11-23T05:27:42.465Z,101999.06
2018-11-23T05:30:12.678Z,101990.40
2018-11-23T05:32:40.857Z,101991.56
2018-11-23T05:35:09.995Z,101989.27
2018-11-23T05:37:38.374Z,101985.19
2018-11-23T05:40:09.108Z,101991.20
2018-11-23T05:42:37.495Z,101994.56
2018-11-23T05:45:07.432Z,101996.91
2018-11-23T05:47:35.800Z,101993.99
2018-11-23T05:50:04.663Z,101993.55
2018-11-23T05:52:32.812Z,101988.64
2018-11-23T05:55:00.974Z,101994.17
2018-11-23T05:57:29.156Z,101985.78
2018-11-23T05:59:57.403Z,101990.05
2018-11-23T06:02:25.656Z,101987.64
2018-11-23T06:04:53.872Z,101984.48
2018-11-23T06:07:22.015Z,101987.71
2018-11-23T06:09:50.259Z,101985.11
2018-11-23T06:12:18.469Z,101991.36
2018-11-23T06:14:46.645Z,101986.82
2018-11-23T06:17:14.824Z,101990.54
2018-11-23T06:19:43.009Z,101988.78
2018-11-23T06:22:11.182Z,101993.01
2018-11-23T06:24:39.365Z,101994.39
2018-11-23T06:27:07.540Z,101991.07
2018-11-23T06:29:35.686Z,101993.59
2018-11-23T06:32:03.856Z,101988.15
2018-11-23T06:34:32.163Z,101983.00
2018-11-23T06:37:00.310Z,101986.02
2018-11-23T06:39:28.485Z,101990.77
2018-11-23T06:41:56.640Z,101992.50
2018-11-23T06:44:29.872Z,101992.55
2018-11-23T06:46:58.005Z,101991.31
2018-11-23T06:49:26.506Z,101998.50
2018-11-23T06:51:54.654Z,101996.89
2018-11-23T06:54:22.826Z,102000.19
2018-11-23T06:56:50.967Z,101998.48
2018-11-23T06:59:19.200Z,101998.73
2018-11-23T07:01:47.450Z,101993.01
2018-11-23T07:04:15.616Z,101997.09
2018-11-23T07:06:43.799Z,101993.24
2018-11-23T07:09:12.000Z,101999.15
2018-11-23T07:11:40.170Z,102004.68
2018-11-23T07:14:08.324Z,101996.17
2018-11-23T07:16:36.540Z,101997.70
2018-11-23T07:19:04.727Z,101995.21
2018-11-23T07:21:32.915Z,101995.56
2018-11-23T07:24:01.117Z,101991.36
2018-11-23T07:26:29.276Z,102000.38
2018-11-23T07:28:57.438Z,102001.91
2018-11-23T07:31:25.626Z,101993.00
2018-11-23T07:33:53.812Z,101995.09
2018-11-23T07:36:22.014Z,101999.82
2018-11-23T07:38:50.216Z,101992.20
2018-11-23T07:41:29.719Z,101992.42
2018-11-23T07:43:57.878Z,101989.91
2018-11-23T07:46:26.098Z,101985.34
2018-11-23T07:48:54.293Z,101983.91
2018-11-23T07:51:22.551Z,101988.53
2018-11-23T07:53:50.793Z,101988.64
2018-11-23T07:56:18.986Z,102000.31
2018-11-23T07:58:47.429Z,101995.81
2018-11-23T08:01:15.634Z,101996.44
2018-11-23T08:03:43.872Z,101990.95
2018-11-23T08:06:12.028Z,101991.20
2018-11-23T08:08:40.190Z,101988.44
2018-11-23T08:11:09.074Z,101993.49
2018-11-23T08:13:38.089Z,101993.49
2018-11-23T08:16:06.644Z,101986.61
2018-11-23T08:18:34.823Z,101981.64
2018-11-23T08:21:02.919Z,101983.63
2018-11-23T08:23:31.085Z,101987.67
2018-11-23T08:25:59.370Z,101977.97
2018-11-23T08:28:27.537Z,101981.42
2018-11-23T08:30:55.685Z,101978.69
2018-11-23T08:33:23.839Z,101978.70
2018-11-23T08:35:51.940Z,101978.76
2018-11-23T08:38:20.107Z,101974.12
2018-11-23T08:40:48.307Z,101965.23
2018-11-23T08:43:16.411Z,101967.22
2018-11-23T08:45:44.603Z,101965.32
2018-11-23T08:48:12.758Z,101970.10
2018-11-23T08:50:41.033Z,101966.92
2018-11-23T08:53:09.203Z,101962.09
2018-11-23T08:55:37.377Z,101965.38
2018-11-23T08:58:05.596Z,101969.37
2018-11-23T09:00:33.761Z,101955.03
2018-11-23T09:03:02.879Z,101961.20
2018-11-23T09:05:31.019Z,101968.73
2018-11-23T09:07:59.461Z,101964.64
2018-11-23T09:10:29.021Z,101960.20
2018-11-23T09:12:59.470Z,101957.10
2018-11-23T09:15:27.669Z,101964.90
2018-11-23T09:17:55.806Z,101966.19
2018-11-23T09:20:24.090Z,101962.08
2018-11-23T09:22:52.191Z,101961.59
2018-11-23T09:25:21.721Z,101960.95
2018-11-23T09:27:49.911Z,101961.84
2018-11-23T09:30:20.749Z,101961.59
2018-11-23T09:32:49.631Z,101965.44
2018-11-23T09:35:17.798Z,101966.83
2018-11-23T09:37:46.451Z,101960.98
2018-11-23T09:40:17.991Z,101957.74
2018-11-23T09:42:46.289Z,101952.90
2018-11-23T09:45:16.701Z,101963.41
2018-11-23T09:47:45.905Z,101962.08
2018-11-23T09:50:15.520Z,101953.11
2018-11-23T09:52:44.132Z,101962.63
2018-11-23T09:55:12.350Z,101944.05
2018-11-23T09:57:41.043Z,101941.09
2018-11-23T10:00:12.651Z,101945.82
2018-11-23T10:02:41.487Z,101943.41
2018-11-23T10:05:10.638Z,101941.73
2018-11-23T10:07:38.825Z,101936.35
2018-11-23T10:10:08.257Z,101923.39
2018-11-23T10:12:36.588Z,101929.02
2018-11-23T10:15:05.188Z,101929.04
2018-11-23T10:17:33.309Z,101931.72
2018-11-23T10:20:01.563Z,101926.56
2018-11-23T10:22:29.807Z,101920.80
2018-11-23T10:24:58.162Z,101917.36
2018-11-23T10:27:26.577Z,101920.69
2018-11-23T10:29:55.394Z,101921.56
2018-11-23T10:32:23.195Z,101924.67
2018-11-23T10:34:51.432Z,101920.44
2018-11-23T10:37:19.833Z,101923.51
2018-11-23T10:39:48.323Z,101924.66
2018-11-23T10:42:16.519Z,101919.41
2018-11-23T10:44:44.717Z,101916.06
2018-11-23T10:47:13.010Z,101918.23
2018-11-23T10:49:41.315Z,101907.47
2018-11-23T10:52:09.549Z,101908.76
2018-11-23T10:54:37.774Z,101900.02
2018-11-23T10:57:06.162Z,101898.98
2018-11-23T10:59:34.547Z,101894.87
2018-11-23T11:02:02.969Z,101882.04
2018-11-23T11:04:36.606Z,101889.09
2018-11-23T11:07:06.762Z,101885.73
2018-11-23T11:09:35.112Z,101881.64
2018-11-23T11:12:03.384Z,101882.27
2018-11-23T11:14:31.647Z,101879.31
2018-11-23T11:16:59.833Z,101880.13
2018-11-23T11:19:28.039Z,101879.32
2018-11-23T11:21:56.261Z,101879.67
2018-11-23T11:24:24.449Z,101873.67
2018-11-23T11:26:52.805Z,101865.08
2018-11-23T11:29:20.966Z,101861.36
2018-11-23T11:31:49.583Z,101864.17
2018-11-23T11:34:17.789Z,101865.33
2018-11-23T11:36:46.128Z,101863.66
2018-11-23T11:39:14.465Z,101869.06
2018-11-23T11:41:42.707Z,101859.53
2018-11-23T11:44:10.921Z,101855.67
2018-11-23T11:46:39.151Z,101844.79
2018-11-23T11:49:07.357Z,101845.23
2018-11-23T11:51:35.634Z,101849.13
2018-11-23T11:54:03.777Z,101835.71
2018-11-23T11:56:32.098Z,101830.94
2018-11-23T11:59:00.211Z,101834.06
2018-11-23T12:01:28.400Z,101837.02
2018-11-23T12:03:57.254Z,101835.98
2018-11-23T12:06:25.459Z,101832.64
2018-11-23T12:08:53.632Z,101827.63
2018-11-23T12:11:22.098Z,101830.33
2018-11-23T12:13:50.381Z,101825.06
2018-11-23T12:16:18.560Z,101824.97
2018-11-23T12:18:47.018Z,101818.92
2018-11-23T12:21:15.238Z,101820.97
2018-11-23T12:23:43.623Z,101814.16
2018-11-23T12:26:11.891Z,101814.23
2018-11-23T12:28:40.115Z,101809.54
2018-11-23T12:31:08.363Z,101805.61
2018-11-23T12:33:36.595Z,101806.64
2018-11-23T12:36:04.878Z,101794.24
2018-11-23T12:38:33.081Z,101797.70
2018-11-23T12:41:01.313Z,101797.93
2018-11-23T12:43:29.484Z,101799.19
2018-11-23T12:45:57.693Z,101793.29
2018-11-23T12:48:25.850Z,101790.75
2018-11-23T12:50:54.069Z,101792.30
2018-11-23T12:53:22.294Z,101782.13
2018-11-23T12:55:50.611Z,101772.63
2018-11-23T12:58:18.923Z,101765.02
2018-11-23T13:00:47.139Z,101765.71
2018-11-23T13:03:15.359Z,101765.25
2018-11-23T13:05:43.672Z,101770.92
2018-11-23T13:08:12.881Z,101770.36
2018-11-23T13:10:41.081Z,101771.31
2018-11-23T13:13:09.330Z,101762.95
2018-11-23T13:15:37.549Z,101763.31
2018-11-23T13:18:05.963Z,101755.96
2018-11-23T13:20:34.105Z,101757.68
2018-11-23T13:23:02.346Z,101754.55
2018-11-23T13:25:32.087Z,101750.80
2018-11-23T13:28:00.338Z,101754.88
2018-11-23T13:30:30.030Z,101750.86
2018-11-23T13:32:58.281Z,101752.18
2018-11-23T13:35:26.449Z,101752.41
2018-11-23T13:37:54.751Z,101757.05
2018-11-23T13:40:24.411Z,101757.02
2018-11-23T13:42:53.192Z,101757.98
2018-11-23T13:45:22.680Z,101752.08
2018-11-23T13:47:50.802Z,101752.41
2018-11-23T13:50:20.155Z,101755.87
2018-11-23T13:52:49.258Z,101757.47
2018-11-23T13:55:18.188Z,101751.58
2018-11-23T13:57:47.743Z,101757.02
2018-11-23T14:00:18.178Z,101749.84
2018-11-23T14:02:47.021Z,101753.23
2018-11-23T14:05:17.508Z,101748.98
2018-11-23T14:07:46.939Z,101748.63
2018-11-23T14:10:16.569Z,101741.22
2018-11-23T14:12:45.127Z,101747.08
2018-11-23T14:15:18.149Z,101743.84
2018-11-23T14:17:47.255Z,101740.81
2018-11-23T14:20:16.324Z,101743.28
2018-11-23T14:22:44.500Z,101738.94
2018-11-23T14:25:14.195Z,101741.30
2018-11-23T14:27:43.037Z,101726.62
2018-11-23T14:30:13.785Z,101727.88
2018-11-23T14:32:42.068Z,101726.38
2018-11-23T14:35:12.549Z,101725.03
2018-11-23T14:37:41.217Z,101730.04
2018-11-23T14:40:10.493Z,101735.93
2018-11-23T14:42:39.496Z,101736.16
2018-11-23T14:45:10.438Z,101728.22
2018-11-23T14:47:38.894Z,101724.82
2018-11-23T14:50:09.810Z,101722.77
2018-11-23T14:52:38.040Z,101717.38
2018-11-23T14:55:07.928Z,101730.80
2018-11-23T14:57:36.450Z,101724.59
2018-11-23T15:00:07.823Z,101723.44
2018-11-23T15:02:36.060Z,101717.55
2018-11-23T15:05:04.343Z,101717.63
2018-11-23T15:07:32.625Z,101720.65
2018-11-23T15:10:00.905Z,101719.44
2018-11-23T15:12:29.167Z,101718.25
2018-11-23T15:14:57.437Z,101711.75
2018-11-23T15:17:25.646Z,101718.00
2018-11-23T15:19:53.847Z,101708.38
2018-11-23T15:22:22.131Z,101717.23
2018-11-23T15:24:50.479Z,101713.83
2018-11-23T15:27:18.684Z,101712.31
2018-11-23T15:29:46.951Z,101705.45
2018-11-23T15:32:15.216Z,101702.13
2018-11-23T15:34:43.623Z,101712.23
2018-11-23T15:37:11.895Z,101709.48
2018-11-23T15:39:40.226Z,101706.08
2018-11-23T15:42:08.670Z,101712.50
2018-11-23T15:44:36.949Z,101712.50
2018-11-23T15:47:05.506Z,101707.31
2018-11-23T15:49:33.710Z,101709.53
2018-11-23T15:52:01.909Z,101699.95
2018-11-23T15:54:30.138Z,101698.45
2018-11-23T15:56:58.376Z,101686.80
2018-11-23T15:59:26.606Z,101688.16
2018-11-23T16:01:54.819Z,101683.56
2018-11-23T16:04:23.104Z,101685.42
2018-11-23T16:06:51.286Z,101676.20
2018-11-23T16:09:19.655Z,101672.39
2018-11-23T16:11:48.286Z,101678.20
2018-11-23T16:14:17.583Z,101675.41
2018-11-23T16:16:45.750Z,101673.42
2018-11-23T16:19:13.982Z,101684.13
2018-11-23T16:21:42.198Z,101686.22
2018-11-23T16:24:10.418Z,101689.50
2018-11-23T16:26:38.561Z,101683.12
2018-11-23T16:29:06.800Z,101680.55
2018-11-23T16:31:34.978Z,101685.06
2018-11-23T16:34:03.232Z,101676.96
2018-11-23T16:36:31.405Z,101681.56
2018-11-23T16:38:59.588Z,101683.59
2018-11-23T16:41:27.771Z,101687.51
2018-11-23T16:43:55.948Z,101676.64
2018-11-23T16:46:24.197Z,101679.96
2018-11-23T16:48:52.360Z,101680.70
2018-11-23T16:51:20.520Z,101675.78
2018-11-23T16:53:48.694Z,101674.33
2018-11-23T16:56:16.891Z,101682.80
2018-11-23T16:58:45.076Z,101681.02
2018-11-23T17:01:13.353Z,101679.20
2018-11-23T17:03:41.680Z,101669.85
2018-11-23T17:06:09.920Z,101678.72
2018-11-23T17:08:39.898Z,101675.08
2018-11-23T17:11:06.640Z,101669.88
2018-11-23T17:13:34.940Z,101678.95
2018-11-23T17:16:03.269Z,101675.88
2018-11-23T17:18:31.586Z,101671.16
2018-11-23T17:20:59.851Z,101672.16
2018-11-23T17:23:28.100Z,101668.44
2018-11-23T17:25:56.425Z,101673.87
2018-11-23T17:28:24.624Z,101671.80
2018-11-23T17:30:53.004Z,101664.44
2018-11-23T17:33:21.428Z,101667.95
2018-11-23T17:35:49.814Z,101663.08
2018-11-23T17:38:18.023Z,101663.34
2018-11-23T17:40:46.305Z,101660.92
2018-11-23T17:43:14.510Z,101663.79
2018-11-23T17:45:42.750Z,101667.36
2018-11-23T17:48:11.032Z,101667.64
2018-11-23T17:50:40.218Z,101661.70
2018-11-23T17:53:08.508Z,101663.59
2018-11-23T17:55:36.810Z,101661.05
2018-11-23T17:58:05.828Z,101657.67
2018-11-23T18:00:39.249Z,101657.89
2018-11-23T18:03:03.833Z,101654.52
2018-11-23T18:05:32.927Z,101656.28
2018-11-23T18:08:01.784Z,101650.77
2018-11-23T18:10:31.186Z,101652.20
2018-11-23T18:13:00.312Z,101653.51
2018-11-23T18:15:29.867Z,101643.05
2018-11-23T18:17:59.212Z,101638.19
2018-11-23T18:20:28.367Z,101631.28
2018-11-23T18:22:57.347Z,101627.43
2018-11-23T18:25:31.293Z,101623.21
2018-11-23T18:28:00.602Z,101624.74
2018-11-23T18:30:29.958Z,101623.41
2018-11-23T18:32:58.235Z,101632.92
2018-11-23T18:35:26.541Z,101640.22
2018-11-23T18:37:54.796Z,101626.00
2018-11-23T18:40:23.005Z,101626.42
2018-11-23T18:42:51.193Z,101619.40
2018-11-23T18:45:19.360Z,101620.39
2018-11-23T18:47:47.586Z,101615.30
2018-11-23T18:50:17.722Z,101626.17
2018-11-23T18:52:46.040Z,101615.27
2018-11-23T18:55:18.321Z,101603.91
2018-11-23T18:57:43.203Z,101599.53
2018-11-23T19:00:13.483Z,101592.16
2018-11-23T19:02:42.158Z,101608.83
2018-11-23T19:05:12.012Z,101610.82
2018-11-23T19:07:40.254Z,101602.89
2018-11-23T19:10:10.229Z,101591.55
2018-11-23T19:12:38.389Z,101586.23
2018-11-23T19:15:09.376Z,101593.56
2018-11-23T19:17:37.647Z,101590.42
2018-11-23T19:20:10.557Z,101587.67
2018-11-23T19:22:38.852Z,101585.55
2018-11-23T19:25:07.172Z,101575.36
2018-11-23T19:27:35.448Z,101586.64
2018-11-23T19:30:03.878Z,101583.77
2018-11-23T19:32:32.111Z,101576.64
2018-11-23T19:35:00.304Z,101567.86
2018-11-23T19:37:28.477Z,101572.59
2018-11-23T19:39:56.712Z,101566.30
2018-11-23T19:42:27.812Z,101557.28
2018-11-23T19:44:56.092Z,101559.11
2018-11-23T19:47:24.314Z,101560.73
2018-11-23T19:49:52.560Z,101560.42
2018-11-23T19:52:20.887Z,101565.95
2018-11-23T19:54:50.068Z,101557.42
2018-11-23T19:57:18.284Z,101565.87
2018-11-23T19:59:46.512Z,101560.62
2018-11-23T20:02:14.754Z,101558.36
2018-11-23T20:04:43.000Z,101550.00
2018-11-23T20:07:11.515Z,101542.21
2018-11-23T20:09:40.132Z,101536.33
2018-11-23T20:12:08.160Z,101530.73
2018-11-23T20:14:36.513Z,101531.47
2018-11-23T20:17:05.138Z,101526.33
2018-11-23T20:19:33.408Z,101525.56
2018-11-23T20:22:01.674Z,101525.29
2018-11-23T20:24:31.051Z,101522.41
2018-11-23T20:26:59.318Z,101517.61
2018-11-23T20:29:27.513Z,101515.28
2018-11-23T20:31:55.775Z,101506.95
2018-11-23T20:34:24.043Z,101505.67
2018-11-23T20:36:52.250Z,101497.96
2018-11-23T20:39:20.919Z,101499.30
2018-11-23T20:41:49.130Z,101497.72
2018-11-23T20:44:17.360Z,101494.47
2018-11-23T20:46:45.660Z,101494.47
2018-11-23T20:49:13.862Z,101485.66
2018-11-23T20:51:42.148Z,101483.16
2018-11-23T20:54:10.387Z,101480.61
2018-11-23T20:56:38.670Z,101480.19
2018-11-23T20:59:06.895Z,101474.42
2018-11-23T21:01:35.264Z,101468.13
2018-11-23T21:04:03.534Z,101465.86
2018-11-23T21:06:31.773Z,101470.67
2018-11-23T21:09:00.358Z,101464.52
2018-11-23T21:11:28.583Z,101470.13
2018-11-23T21:13:56.845Z,101460.97
2018-11-23T21:16:26.026Z,101465.64
2018-11-23T21:18:54.302Z,101458.83
2018-11-23T21:21:22.613Z,101462.62
2018-11-23T21:23:50.863Z,101466.38
2018-11-23T21:26:19.096Z,101464.18
2018-11-23T21:28:47.329Z,101452.47
2018-11-23T21:31:15.563Z,101457.14
2018-11-23T21:33:43.781Z,101468.36
2018-11-23T21:36:12.021Z,101460.97
2018-11-23T21:38:40.264Z,101449.07
2018-11-23T21:41:08.510Z,101451.91
2018-11-23T21:43:36.846Z,101448.42
2018-11-23T21:46:05.273Z,101438.12
2018-11-23T21:48:33.501Z,101437.93
2018-11-23T21:51:01.762Z,101438.94
2018-11-23T21:53:30.023Z,101437.93
2018-11-23T21:55:58.261Z,101445.30
2018-11-23T21:58:26.499Z,101444.30
2018-11-23T22:00:55.869Z,101451.00
2018-11-23T22:03:24.090Z,101449.01
2018-11-23T22:05:52.340Z,101455.58
2018-11-23T22:08:20.534Z,101464.95
2018-11-23T22:10:48.799Z,101464.95
2018-11-23T22:13:17.007Z,101472.02
2018-11-23T22:15:45.280Z,101469.12
2018-11-23T22:18:13.495Z,101465.66
2018-11-23T22:20:42.604Z,101461.47
2018-11-23T22:23:10.783Z,101465.81
2018-11-23T22:25:39.121Z,101469.07
2018-11-23T22:28:07.427Z,101467.02
2018-11-23T22:30:35.618Z,101461.31
2018-11-23T22:33:03.872Z,101454.31
2018-11-23T22:35:32.036Z,101451.81
2018-11-23T22:38:00.372Z,101450.45
2018-11-23T22:40:28.514Z,101445.97
2018-11-23T22:42:57.761Z,101440.24
2018-11-23T22:45:25.954Z,101443.52
2018-11-23T22:47:54.211Z,101439.24
2018-11-23T22:50:23.135Z,101430.09
2018-11-23T22:52:51.461Z,101428.00
2018-11-23T22:55:20.019Z,101429.23
2018-11-23T22:57:48.176Z,101436.34
2018-11-23T23:00:22.733Z,101430.19
2018-11-23T23:02:51.079Z,101430.41
2018-11-23T23:05:22.345Z,101423.45
2018-11-23T23:07:50.662Z,101420.53
2018-11-23T23:10:18.894Z,101426.58
2018-11-23T23:12:47.165Z,101419.47
2018-11-23T23:15:15.382Z,101423.90
2018-11-23T23:17:43.619Z,101414.20
2018-11-23T23:20:13.011Z,101411.95
2018-11-23T23:22:41.230Z,101402.40
2018-11-23T23:25:10.527Z,101399.24
2018-11-23T23:27:38.762Z,101400.09
2018-11-23T23:30:12.273Z,101392.83
2018-11-23T23:32:40.599Z,101395.79
2018-11-23T23:35:09.720Z,101399.78
2018-11-23T23:37:37.992Z,101389.53
2018-11-23T23:40:17.776Z,101391.83
2018-11-23T23:42:46.449Z,101380.27
2018-11-23T23:45:15.651Z,101380.69
2018-11-23T23:47:50.278Z,101381.17
2018-11-23T23:50:22.100Z,101388.00
2018-11-23T23:52:50.891Z,101383.95
2018-11-23T23:55:19.009Z,101380.98
2018-11-23T23:57:47.761Z,101372.70
